Decoded Metar for VABB (BOMBAY in INDIA) (IATA:BOM) | Meteo·Mobile Aviation Weather
aviador You're here:

VABB Decoded Metar

BOMBAY in INDIA
Report Time2019-07-16 22:00:00
UTC Time2019-07-16 22:18:46
Flight Rules ifr IFR
WindCalm
Visibility3000 m
Phenomena:Haze
Clouds:Scattered 020 Hf
Broken 100 Hf
Expected CloudBase > 800 ft AGL from Temp-Dew spread
Ceiling10,000 ft
Temp28°C (ISA +13)
Dew Point26°C (89% RH)
Heat Index33.6°C
QNH1006 hPa
Density Alt2,205 ft
Elevation26 ft
Report Wrong Elevation
Raw Report
VABB 162200Z 00000KT 3000 HZ SCT020 BKN100 28/26 Q1006 NOSIG=

Extra information for VABB:More info

Metar Taf Metar & Taf Last 4 Metars F.Rules Stats Wind Profile Meteogram Temp Stats Airport Information Weather charts Add Link Nearby VenuesMetar ALERT Operation Metar Decoded Social comments